Argos, Greece
Current Conditions -  °F | °C
As of 6:20 AM on Monday 26 Jan 2015 (Local Time) from LGEL Reporting Station
Few Clouds Few Clouds  
Wind Chill: 41°   Ceiling: Unl
Heat Index: 41°   Visibility: 6mi
Dew Point: 39°   Wind: 0mph
Humidity: 93%   Direction: NA
Pressure: 29.97"   Gusts: NA
Location:  37.63°N, 22.73°E
Report Text: LGEL 260420Z 00000KT 9999 FEW025 05/04 Q1015
Loading
Personal Weather Stations






























Interactive Weather Map New forecast layout! Learn more

10-Day Weather Forecast

Advertisements
Track Severe Weather on mobile